Time;durP1;ratioP1;P1;durP2;ratioP2;P2;SDS_P1;SDS_P2;PMS_P1;PMS_P2;Temp;Humidity;BMP_temperature;BMP_pressure;BME280_temperature;BME280_humidity;BME280_pressure;Samples;Min_cycle;Max_cycle;Signal;HPM_P1;HPM_P2
2022/04/26 03:37:29;;;;;;;3.80;2.10;;;;;;100149.20;;;;107242;1274;64859;-28
2022/04/26 03:40:00;;;;;;;4.20;2.20;;;;;;100153.23;;;;107280;1274;64851;-28
2022/04/26 03:42:27;;;;;;;4.80;2.60;;;;;;100154.91;;;;107252;1274;65152;-30
2022/04/26 03:44:57;;;;;;;4.30;2.10;;;;;;100157.20;;;;107248;1274;64845;-31
2022/04/26 03:47:24;;;;;;;4.50;2.40;;;;;;100159.97;;;;107227;1274;64834;-28
2022/04/26 03:49:55;;;;;;;4.40;2.20;;;;;;100162.33;;;;107236;1274;64907;-27
2022/04/26 03:52:25;;;;;;;4.20;2.40;;;;;;100163.81;;;;107242;1274;64840;-30
2022/04/26 03:54:55;;;;;;;4.70;2.10;;;;;;100165.41;;;;107221;1274;66439;-31
2022/04/26 03:57:22;;;;;;;3.90;2.20;;;;;;100166.93;;;;107239;1274;64804;-27
2022/04/26 03:59:53;;;;;;;4.40;2.30;;;;;;100169.55;;;;107235;1274;64841;-27
2022/04/26 04:02:23;;;;;;;4.20;2.20;;;;;;100171.75;;;;107234;1274;64740;-27
2022/04/26 04:04:53;;;;;;;4.60;2.50;;;;;;100174.02;;;;107252;1274;64767;-27
2022/04/26 04:07:23;;;;;;;4.40;2.40;;;;;;100176.33;;;;107270;1273;66054;-27
2022/04/26 04:09:54;;;;;;;4.30;2.40;;;;;;100178.27;;;;107231;1274;64869;-27
2022/04/26 04:12:24;;;;;;;3.90;2.40;;;;;;100181.83;;;;107256;1274;64763;-31
2022/04/26 04:14:51;;;;;;;4.10;2.30;;;;;;100182.48;;;;107016;1274;279664;-29
2022/04/26 04:17:21;;;;;;;4.90;2.30;;;;;;100185.61;;;;107229;1273;64859;-30
2022/04/26 04:19:49;;;;;;;4.30;2.30;;;;;;100190.30;;;;107266;1274;66108;-30
2022/04/26 04:22:19;;;;;;;4.20;2.30;;;;;;100192.91;;;;107232;1274;65519;-27
2022/04/26 04:24:46;;;;;;;3.90;2.20;;;;;;100195.09;;;;107252;1274;64619;-27
2022/04/26 04:27:17;;;;;;;4.50;2.00;;;;;;100197.10;;;;107232;1274;64835;-27
2022/04/26 04:29:46;;;;;;;4.30;2.20;;;;;;100199.20;;;;107234;1274;64753;-28
2022/04/26 04:32:16;;;;;;;4.50;2.40;;;;;;100201.02;;;;107267;1274;65869;-28
2022/04/26 04:34:46;;;;;;;4.80;2.30;;;;;;100205.63;;;;107232;1274;64772;-27
2022/04/26 04:37:17;;;;;;;3.60;2.10;;;;;;100208.42;;;;107171;1274;64849;-31
2022/04/26 04:39:44;;;;;;;4.30;2.30;;;;;;100209.45;;;;107235;1274;64846;-30
2022/04/26 04:42:14;;;;;;;6.00;2.20;;;;;;100211.88;;;;107280;1274;64500;-27
2022/04/26 04:44:42;;;;;;;4.00;2.30;;;;;;100217.09;;;;107265;1274;66241;-26
2022/04/26 04:47:09;;;;;;;5.30;2.60;;;;;;100220.42;;;;107256;1274;64851;-27
2022/04/26 04:49:37;;;;;;;4.20;2.30;;;;;;100222.22;;;;107240;1274;64770;-31
2022/04/26 04:52:04;;;;;;;4.60;2.50;;;;;;100224.11;;;;107228;1274;64872;-31
2022/04/26 04:54:35;;;;;;;5.40;2.50;;;;;;100228.36;;;;107260;1274;64978;-31
2022/04/26 04:57:05;;;;;;;4.50;2.20;;;;;;100232.25;;;;107240;1274;64884;-27
2022/04/26 04:59:35;;;;;;;5.60;2.20;;;;;;100231.22;;;;107254;1273;64753;-27
2022/04/26 05:02:05;;;;;;;4.10;2.00;;;;;;100234.54;;;;107281;1274;64855;-32
2022/04/26 05:04:36;;;;;;;7.70;2.90;;;;;;100234.98;;;;107229;1274;64728;-31
2022/04/26 05:07:07;;;;;;;4.60;2.70;;;;;;100237.42;;;;107249;1274;65088;-27
2022/04/26 05:09:38;;;;;;;4.80;2.50;;;;;;100237.64;;;;107229;1275;67633;-27
2022/04/26 05:12:06;;;;;;;5.10;2.50;;;;;;100237.25;;;;107254;1274;64837;-27
2022/04/26 05:14:36;;;;;;;5.30;2.70;;;;;;100239.17;;;;107262;1274;65826;-27
2022/04/26 05:17:03;;;;;;;5.50;2.70;;;;;;100243.15;;;;107224;1274;64801;-30
2022/04/26 05:19:34;;;;;;;4.70;2.40;;;;;;100243.76;;;;107257;1274;64833;-31
2022/04/26 05:22:01;;;;;;;3.90;2.20;;;;;;100246.95;;;;107303;1274;64802;-30
2022/04/26 05:27:16;;;;;;;5.00;2.60;;;;;;100249.06;;;;107230;1274;64719;-27
2022/04/26 05:29:47;;;;;;;4.80;2.40;;;;;;100253.79;;;;107246;1274;64863;-27
2022/04/26 05:32:20;;;;;;;4.80;2.30;;;;;;100255.18;;;;107266;1274;64865;-30
2022/04/26 05:34:47;;;;;;;;;;;;;;100256.34;;;;107269;1274;67270;-30
2022/04/26 05:37:18;;;;;;;5.20;2.70;;;;;;100259.59;;;;107255;1274;64728;-31
2022/04/26 05:39:45;;;;;;;5.40;2.90;;;;;;100258.80;;;;107163;1274;64876;-31
2022/04/26 05:42:12;;;;;;;4.90;2.40;;;;;;100262.38;;;;107244;1274;65080;-27
2022/04/26 05:44:40;;;;;;;4.60;2.50;;;;;;100264.38;;;;107238;1274;64950;-26
2022/04/26 05:47:07;;;;;;;4.10;2.30;;;;;;100268.09;;;;107246;1274;65284;-31
2022/04/26 05:49:35;;;;;;;4.70;2.50;;;;;;100270.61;;;;107217;1274;64754;-30
2022/04/26 05:52:03;;;;;;;5.10;2.50;;;;;;100270.30;;;;107258;1274;64759;-27
2022/04/26 05:54:34;;;;;;;4.50;2.30;;;;;;100275.08;;;;107223;1274;64889;-29
2022/04/26 05:57:01;;;;;;;5.80;2.50;;;;;;100278.79;;;;107258;1274;64757;-30
2022/04/26 05:59:31;;;;;;;3.90;2.20;;;;;;100278.14;;;;107280;1274;66451;-31
2022/04/26 06:02:02;;;;;;;4.00;2.40;;;;;;100280.60;;;;107256;1274;65301;-31
2022/04/26 06:04:29;;;;;;;4.60;2.10;;;;;;100283.09;;;;107275;1274;64943;-31
2022/04/26 06:06:57;;;;;;;4.30;2.30;;;;;;100285.98;;;;107244;1274;64869;-31
2022/04/26 06:09:24;;;;;;;3.90;2.30;;;;;;100289.22;;;;107235;1274;64954;-31
2022/04/26 06:11:54;;;;;;;3.80;2.10;;;;;;100291.86;;;;107269;1274;67141;-27
2022/04/26 06:14:21;;;;;;;4.40;2.10;;;;;;100292.89;;;;107219;1274;64851;-27
2022/04/26 06:16:49;;;;;;;3.80;2.00;;;;;;100293.25;;;;107227;1274;64745;-30
2022/04/26 06:19:19;;;;;;;4.80;2.40;;;;;;100295.05;;;;107199;1274;64668;-32
2022/04/26 06:21:46;;;;;;;4.30;2.10;;;;;;100298.30;;;;107179;1277;64757;-27
2022/04/26 06:24:17;;;;;;;4.60;2.10;;;;;;100299.86;;;;107258;1274;64952;-26
2022/04/26 06:26:44;;;;;;;4.20;2.20;;;;;;100297.72;;;;107231;1274;64869;-28
2022/04/26 06:29:14;;;;;;;7.00;2.50;;;;;;100301.46;;;;107227;1274;64858;-28
2022/04/26 06:31:46;;;;;;;4.90;2.40;;;;;;100302.26;;;;107253;1274;64811;-31
2022/04/26 06:34:13;;;;;;;5.50;2.30;;;;;;100304.88;;;;107246;1274;64769;-31
2022/04/26 06:36:44;;;;;;;5.90;2.60;;;;;;100305.50;;;;107245;1275;65171;-31
2022/04/26 06:39:11;;;;;;;4.70;2.00;;;;;;100305.38;;;;107217;1274;64744;-31
2022/04/26 06:41:38;;;;;;;5.70;2.50;;;;;;100304.11;;;;107263;1275;64744;-27
2022/04/26 06:44:06;;;;;;;4.50;2.20;;;;;;100305.59;;;;107234;1274;64953;-26
2022/04/26 06:46:36;;;;;;;4.20;2.10;;;;;;100308.27;;;;107257;1274;64768;-31
2022/04/26 06:49:06;;;;;;;4.50;2.10;;;;;;100308.34;;;;107232;1275;67798;-31
2022/04/26 06:51:40;;;;;;;4.60;2.10;;;;;;100310.39;;;;107236;1274;64744;-30
2022/04/26 06:54:11;;;;;;;4.50;2.40;;;;;;100313.89;;;;107237;1274;64933;-31
2022/04/26 06:56:45;;;;;;;4.60;2.30;;;;;;100314.88;;;;107268;1273;64862;-30
2022/04/26 06:59:13;;;;;;;4.80;2.20;;;;;;100318.39;;;;107242;1274;64652;-31
2022/04/26 07:01:41;;;;;;;4.40;2.40;;;;;;100321.33;;;;107159;1274;65891;-31
2022/04/26 07:04:08;;;;;;;4.00;2.30;;;;;;100322.27;;;;107122;1274;64736;-31
2022/04/26 07:06:36;;;;;;;5.10;2.20;;;;;;100324.66;;;;107188;1274;64722;-27
2022/04/26 07:09:05;;;;;;;5.50;2.40;;;;;;100326.18;;;;106988;1277;64868;-25
2022/04/26 07:11:32;;;;;;;4.20;1.90;;;;;;100324.52;;;;107114;1275;64649;-29
2022/04/26 07:13:59;;;;;;;5.00;2.20;;;;;;100327.99;;;;107133;1274;67551;-30
2022/04/26 07:16:26;;;;;;;4.00;2.10;;;;;;100328.73;;;;107176;1275;64744;-29
2022/04/26 07:18:55;;;;;;;4.20;1.90;;;;;;100326.94;;;;107177;1274;64875;-30
2022/04/26 07:21:23;;;;;;;4.20;2.00;;;;;;100322.86;;;;107189;1274;64972;-27
2022/04/26 07:23:50;;;;;;;4.40;2.40;;;;;;100329.69;;;;107098;1274;64761;-27
2022/04/26 07:26:20;;;;;;;3.90;2.20;;;;;;100330.73;;;;107218;1274;64813;-27
2022/04/26 07:28:50;;;;;;;3.70;2.00;;;;;;100336.80;;;;107192;1275;64756;-26
2022/04/26 07:31:20;;;;;;;4.10;2.40;;;;;;100338.91;;;;107150;1274;64786;-32
2022/04/26 07:36:34;;;;;;;4.40;2.30;;;;;;100345.41;;;;107244;1274;64875;-31
2022/04/26 07:39:02;;;;;;;4.40;2.20;;;;;;100350.80;;;;107204;1274;65267;-30
2022/04/26 07:41:29;;;;;;;4.30;1.90;;;;;;100357.45;;;;107226;1274;64753;-27
2022/04/26 07:43:57;;;;;;;3.70;1.90;;;;;;100355.70;;;;107180;1274;64821;-29
2022/04/26 07:46:24;;;;;;;4.40;2.40;;;;;;100361.69;;;;107199;1274;64831;-29
2022/04/26 07:48:51;;;;;;;5.30;2.30;;;;;;100363.83;;;;107205;1274;65668;-28
2022/04/26 07:51:19;;;;;;;4.60;2.30;;;;;;100365.91;;;;107226;1273;64941;-28
2022/04/26 07:53:47;;;;;;;5.10;2.60;;;;;;100370.57;;;;107210;1274;64728;-28
2022/04/26 07:56:14;;;;;;;7.20;2.80;;;;;;100374.27;;;;107119;1277;64114;-28
2022/04/26 07:58:41;;;;;;;5.90;2.70;;;;;;100376.27;;;;107166;1274;64839;-28
2022/04/26 08:01:09;;;;;;;5.50;2.80;;;;;;100376.58;;;;107181;1274;64886;-28
2022/04/26 08:03:36;;;;;;;5.40;2.80;;;;;;100383.10;;;;107196;1274;66006;-28
2022/04/26 08:06:03;;;;;;;5.40;3.00;;;;;;100382.80;;;;107222;1274;64858;-29
2022/04/26 08:08:30;;;;;;;5.10;3.20;;;;;;100387.02;;;;107222;1274;65976;-28
2022/04/26 08:11:00;;;;;;;6.40;3.00;;;;;;100393.09;;;;107204;1274;64990;-29
2022/04/26 08:13:28;;;;;;;5.60;3.40;;;;;;100394.77;;;;107208;1274;64968;-29
2022/04/26 08:15:58;;;;;;;5.50;3.40;;;;;;100394.05;;;;107267;1274;64853;-29
2022/04/26 08:18:25;;;;;;;6.30;3.10;;;;;;100395.88;;;;107215;1274;64820;-27
2022/04/26 08:20:52;;;;;;;5.80;3.10;;;;;;100397.36;;;;107147;1274;64760;-28
2022/04/26 08:23:20;;;;;;;5.40;3.10;;;;;;100401.63;;;;107205;1274;65388;-28
2022/04/26 08:28:34;;;;;;;5.30;2.80;;;;;;100403.70;;;;107265;1274;66206;-34
2022/04/26 08:31:01;;;;;;;4.90;2.80;;;;;;100405.19;;;;107233;1274;64862;-27
2022/04/26 08:33:30;;;;;;;5.20;2.80;;;;;;100405.80;;;;107234;1274;64752;-35
2022/04/26 08:35:57;;;;;;;4.90;2.80;;;;;;100402.36;;;;107161;1273;64775;-28
2022/04/26 08:38:24;;;;;;;4.50;2.50;;;;;;100403.83;;;;107251;1274;64064;-27
2022/04/26 08:40:51;;;;;;;7.10;3.10;;;;;;100408.38;;;;107224;1274;64734;-27
2022/04/26 08:43:19;;;;;;;5.80;2.90;;;;;;100410.78;;;;107201;1274;64904;-30
2022/04/26 08:45:46;;;;;;;5.70;3.20;;;;;;100412.83;;;;107223;1274;64731;-28
2022/04/26 08:51:02;;;;;;;5.60;3.00;;;;;;100418.20;;;;107242;1274;64712;-29
2022/04/26 08:53:35;;;;;;;4.70;2.90;;;;;;100420.98;;;;107213;1274;66121;-29
2022/04/26 08:56:06;;;;;;;4.50;2.50;;;;;;100421.59;;;;107241;1274;64859;-30
2022/04/26 08:58:35;;;;;;;4.90;2.90;;;;;;100423.60;;;;107190;1274;64795;-32
2022/04/26 09:01:12;;;;;;;5.70;3.10;;;;;;100424.71;;;;107223;1274;64638;-30
2022/04/26 09:03:54;;;;;;;5.60;3.00;;;;;;100426.87;;;;107229;1274;64950;-40
2022/04/26 09:06:45;;;;;;;4.60;3.00;;;;;;100429.48;;;;107175;1274;67170;-38
2022/04/26 09:09:18;;;;;;;5.10;3.50;;;;;;100431.21;;;;107200;1274;64930;-31
2022/04/26 09:11:46;;;;;;;4.90;2.80;;;;;;100432.95;;;;107227;1274;64770;-29
2022/04/26 09:14:34;;;;;;;5.40;3.20;;;;;;100435.45;;;;107168;1274;64901;-29
2022/04/26 09:17:10;;;;;;;5.30;3.50;;;;;;100440.89;;;;107229;1274;64692;-28
2022/04/26 09:19:49;;;;;;;5.10;3.30;;;;;;100445.94;;;;107240;1274;67187;-27
2022/04/26 09:22:20;;;;;;;5.70;2.90;;;;;;100448.27;;;;107216;1274;64778;-25
2022/04/26 09:25:04;;;;;;;5.00;2.80;;;;;;100445.25;;;;107198;1274;65204;-26
2022/04/26 09:27:40;;;;;;;5.60;3.20;;;;;;100448.48;;;;107212;1274;64881;-25
2022/04/26 09:30:10;;;;;;;4.60;3.00;;;;;;100446.16;;;;107246;1274;64844;-25
2022/04/26 09:32:46;;;;;;;4.40;2.50;;;;;;100446.19;;;;107195;1274;67324;-28
2022/04/26 09:35:32;;;;;;;5.70;2.90;;;;;;100447.83;;;;107250;1274;64782;-27
2022/04/26 09:37:59;;;;;;;4.90;3.00;;;;;;100449.35;;;;107175;1274;64840;-26
2022/04/26 09:40:32;;;;;;;5.20;2.80;;;;;;100447.20;;;;107215;1274;64734;-29
2022/04/26 09:42:59;;;;;;;;;;;;;;100448.31;;;;107245;1274;64625;-30
2022/04/26 09:45:27;;;;;;;4.80;2.90;;;;;;100449.35;;;;107190;1274;66006;-29
2022/04/26 09:47:58;;;;;;;5.20;2.90;;;;;;100449.66;;;;107193;1274;64765;-28
2022/04/26 09:50:27;;;;;;;5.70;2.90;;;;;;100449.89;;;;107149;1274;65838;-30
2022/04/26 09:52:55;;;;;;;4.60;2.90;;;;;;100452.04;;;;107161;1274;64650;-28
2022/04/26 09:55:23;;;;;;;4.60;2.70;;;;;;100450.09;;;;107215;1274;64738;-27
2022/04/26 09:57:51;;;;;;;4.80;3.00;;;;;;100453.11;;;;107216;1273;66438;-28
2022/04/26 10:00:21;;;;;;;5.10;3.20;;;;;;100453.59;;;;107153;1274;64725;-29
2022/04/26 10:02:55;;;;;;;4.70;3.20;;;;;;100453.21;;;;107100;1277;64875;-29
2022/04/26 10:05:26;;;;;;;5.10;3.10;;;;;;100453.96;;;;107161;1274;64901;-25
2022/04/26 10:07:54;;;;;;;6.00;3.80;;;;;;100460.15;;;;107225;1274;64721;-29
2022/04/26 10:10:23;;;;;;;5.00;3.50;;;;;;100460.34;;;;107172;1274;66495;-36
2022/04/26 10:15:37;;;;;;;4.90;3.10;;;;;;100460.95;;;;107203;1274;64710;-30
2022/04/26 10:19:09;;;;;;;5.30;3.50;;;;;;100463.91;;;;107109;1274;64782;-26
2022/04/26 10:21:39;;;;;;;5.20;3.10;;;;;;100464.05;;;;106975;1274;63566;-25
2022/04/26 10:24:25;;;;;;;4.90;3.00;;;;;;100463.53;;;;107245;1274;67224;-26
2022/04/26 10:26:53;;;;;;;4.60;3.00;;;;;;100461.84;;;;107238;1274;64760;-30
2022/04/26 10:29:25;;;;;;;5.50;3.20;;;;;;100461.95;;;;107087;1275;64860;-35
2022/04/26 10:31:55;;;;;;;5.60;3.00;;;;;;100463.36;;;;107186;1274;64756;-30
2022/04/26 10:34:24;;;;;;;5.20;3.10;;;;;;100464.70;;;;107214;1274;64880;-32
2022/04/26 10:37:11;;;;;;;4.50;3.10;;;;;;100468.31;;;;107216;1274;66076;-31
2022/04/26 10:39:42;;;;;;;5.40;3.20;;;;;;100471.34;;;;107151;1274;64767;-36
2022/04/26 10:42:16;;;;;;;6.10;3.10;;;;;;100472.27;;;;107102;1274;64866;-32
2022/04/26 10:44:47;;;;;;;5.10;3.10;;;;;;100474.88;;;;107136;1274;66103;-32
2022/04/26 10:47:18;;;;;;;4.70;3.30;;;;;;100475.79;;;;107192;1274;64732;-32
2022/04/26 10:49:47;;;;;;;4.80;3.40;;;;;;100476.57;;;;107204;1274;67639;-25
2022/04/26 10:52:18;;;;;;;5.20;3.10;;;;;;100475.38;;;;107202;1274;64959;-26
2022/04/26 10:54:48;;;;;;;5.20;3.60;;;;;;100475.61;;;;107192;1274;65324;-30
2022/04/26 10:57:31;;;;;;;5.70;3.70;;;;;;100479.78;;;;107200;1274;64882;-27
2022/04/26 11:00:18;;;;;;;5.70;3.50;;;;;;100481.21;;;;107171;1274;64841;-28
2022/04/26 11:02:48;;;;;;;4.70;3.10;;;;;;100479.30;;;;107195;1274;67810;-32
2022/04/26 11:05:26;;;;;;;5.20;3.40;;;;;;100480.40;;;;107207;1274;64785;-30
2022/04/26 11:07:55;;;;;;;4.90;3.10;;;;;;100482.64;;;;107189;1274;64760;-30
2022/04/26 11:10:25;;;;;;;5.80;3.00;;;;;;100480.14;;;;107207;1274;64771;-31
2022/04/26 11:12:53;;;;;;;5.50;3.20;;;;;;100479.30;;;;107256;1274;64763;-32
2022/04/26 11:15:25;;;;;;;5.20;3.00;;;;;;100476.98;;;;107180;1274;66463;-31
2022/04/26 11:17:54;;;;;;;5.90;3.30;;;;;;100476.67;;;;107186;1274;64857;-26
2022/04/26 11:20:25;;;;;;;5.80;3.60;;;;;;100478.61;;;;107097;1274;64997;-25
2022/04/26 11:27:59;;;;;;;5.20;3.30;;;;;;100478.59;;;;107096;1274;66469;-25
2022/04/26 11:28:30;;;;;;;5.30;3.50;;;;;;100481.12;;;;107188;1274;66313;-38
2022/04/26 11:30:59;;;;;;;5.50;3.50;;;;;;100482.41;;;;107238;1274;64865;-37
2022/04/26 11:33:28;;;;;;;6.90;4.00;;;;;;100481.71;;;;107212;1273;64882;-36
2022/04/26 11:36:02;;;;;;;6.10;3.90;;;;;;100482.05;;;;107142;1274;65303;-27
2022/04/26 11:38:29;;;;;;;5.20;3.50;;;;;;100478.34;;;;107232;1274;64813;-27
2022/04/26 11:41:02;;;;;;;5.40;3.80;;;;;;100477.56;;;;107180;1274;66497;-31
2022/04/26 11:43:34;;;;;;;5.90;4.10;;;;;;100479.31;;;;107127;1275;64776;-26
2022/04/26 11:46:03;;;;;;;5.30;3.20;;;;;;100481.26;;;;107206;1274;64959;-32
2022/04/26 11:48:34;;;;;;;4.90;3.20;;;;;;100481.17;;;;107215;1274;64862;-33
2022/04/26 11:51:04;;;;;;;5.60;3.70;;;;;;100481.47;;;;107200;1274;64768;-42
2022/04/26 11:53:37;;;;;;;5.50;3.50;;;;;;100485.67;;;;106992;1277;67651;-50
2022/04/26 11:56:06;;;;;;;5.50;3.70;;;;;;100482.31;;;;107097;1274;64907;-37
2022/04/26 11:58:35;;;;;;;5.30;3.30;;;;;;100484.98;;;;107146;1274;64840;-35
2022/04/26 12:01:12;;;;;;;5.50;3.50;;;;;;100485.70;;;;107189;1274;64872;-28
2022/04/26 12:03:56;;;;;;;5.10;3.30;;;;;;100479.76;;;;107267;1274;64811;-28
2022/04/26 12:06:35;;;;;;;5.90;3.60;;;;;;100483.70;;;;107203;1274;67718;-39
2022/04/26 12:09:08;;;;;;;5.90;3.50;;;;;;100483.61;;;;107206;1274;64988;-35
2022/04/26 12:11:38;;;;;;;5.20;3.60;;;;;;100485.04;;;;107190;1274;64846;-27
2022/04/26 12:14:17;;;;;;;5.50;3.50;;;;;;100482.23;;;;107185;1274;64674;-27
2022/04/26 12:16:47;;;;;;;5.20;3.70;;;;;;100480.84;;;;106952;1274;369467;-27
2022/04/26 12:19:15;;;;;;;4.80;3.40;;;;;;100481.79;;;;107142;1274;64849;-36
2022/04/26 12:21:57;;;;;;;5.50;3.70;;;;;;100482.66;;;;107251;1274;64970;-27
2022/04/26 12:24:32;;;;;;;5.20;4.10;;;;;;100480.06;;;;107138;1274;64902;-25
2022/04/26 12:27:12;;;;;;;6.00;4.00;;;;;;100478.66;;;;107132;1274;64901;-27
2022/04/26 12:29:42;;;;;;;5.70;3.80;;;;;;100477.70;;;;107214;1273;64757;-26
2022/04/26 12:32:15;;;;;;;6.00;3.90;;;;;;100474.98;;;;107222;1274;67143;-27
2022/04/26 12:34:57;;;;;;;4.80;3.40;;;;;;100475.38;;;;107241;1274;64777;-28
2022/04/26 12:37:30;;;;;;;5.20;4.10;;;;;;100475.95;;;;107186;1274;64932;-26
2022/04/26 12:40:04;;;;;;;5.10;3.80;;;;;;100472.75;;;;107203;1274;64744;-25
2022/04/26 12:42:38;;;;;;;5.40;3.40;;;;;;100471.89;;;;107212;1274;64621;-27
2022/04/26 12:45:24;;;;;;;4.60;3.20;;;;;;100471.27;;;;107169;1274;67156;-25
2022/04/26 12:51:22;;;;;;;5.40;3.50;;;;;;100474.33;;;;107251;1274;64865;-32
2022/04/26 12:53:55;;;;;;;4.40;3.10;;;;;;100474.23;;;;107178;1274;65023;-33
2022/04/26 12:56:25;;;;;;;4.70;3.10;;;;;;100474.13;;;;107105;1274;64699;-27
2022/04/26 12:58:52;;;;;;;5.20;3.50;;;;;;100471.20;;;;107209;1274;66000;-27
2022/04/26 13:01:20;;;;;;;5.10;3.60;;;;;;100473.25;;;;107170;1274;64734;-27
2022/04/26 13:03:47;;;;;;;5.70;3.30;;;;;;100471.05;;;;107207;1274;64875;-29
2022/04/26 13:06:17;;;;;;;4.70;3.30;;;;;;100473.16;;;;107205;1274;64596;-33
2022/04/26 13:08:48;;;;;;;5.70;3.30;;;;;;100477.08;;;;107229;1274;64992;-33
2022/04/26 13:11:18;;;;;;;5.70;3.40;;;;;;100479.34;;;;107283;1274;66121;-27
2022/04/26 13:13:48;;;;;;;5.20;3.40;;;;;;100477.77;;;;107190;1274;64875;-28
2022/04/26 13:16:19;;;;;;;4.80;3.20;;;;;;100476.27;;;;107212;1274;64810;-42
2022/04/26 13:18:46;;;;;;;6.40;3.40;;;;;;100475.16;;;;107097;1274;64862;-34
2022/04/26 13:21:14;;;;;;;4.60;3.20;;;;;;100473.27;;;;107204;1274;64662;-32
2022/04/26 13:23:43;;;;;;;4.70;3.10;;;;;;100469.97;;;;107047;1274;66054;-33
2022/04/26 13:26:11;;;;;;;5.70;3.20;;;;;;100472.74;;;;107228;1274;64817;-33
2022/04/26 13:28:38;;;;;;;5.00;2.90;;;;;;100472.03;;;;107176;1274;64779;-37
2022/04/26 13:31:06;;;;;;;5.10;3.10;;;;;;100470.30;;;;107226;1274;64891;-26
2022/04/26 13:33:33;;;;;;;4.80;3.00;;;;;;100470.70;;;;107254;1274;64737;-27
2022/04/26 13:36:00;;;;;;;4.90;3.50;;;;;;100468.91;;;;107200;1274;66225;-28
2022/04/26 13:38:28;;;;;;;4.80;3.20;;;;;;100471.51;;;;107199;1274;64767;-27
2022/04/26 13:40:59;;;;;;;5.60;3.20;;;;;;100471.52;;;;107275;1274;64804;-28
2022/04/26 13:43:26;;;;;;;4.70;3.00;;;;;;100470.64;;;;107173;1274;64777;-28
2022/04/26 13:45:54;;;;;;;4.80;3.20;;;;;;100469.46;;;;107254;1274;66604;-37
2022/04/26 13:48:22;;;;;;;4.50;2.90;;;;;;100471.15;;;;107202;1274;64863;-42
2022/04/26 13:50:50;;;;;;;4.80;2.80;;;;;;100471.52;;;;107169;1274;64783;-26
2022/04/26 13:53:17;;;;;;;5.60;3.00;;;;;;100471.10;;;;107197;1274;64762;-27
2022/04/26 13:55:44;;;;;;;4.00;2.50;;;;;;100472.91;;;;107201;1274;64917;-41
2022/04/26 13:58:12;;;;;;;4.90;3.10;;;;;;100475.00;;;;107201;1274;64773;-41
2022/04/26 14:00:39;;;;;;;4.80;2.90;;;;;;100476.65;;;;107204;1273;65580;-38
2022/04/26 14:03:07;;;;;;;4.90;3.40;;;;;;100479.81;;;;107137;1274;64783;-40
2022/04/26 14:05:34;;;;;;;4.90;3.00;;;;;;100477.23;;;;107256;1274;64843;-37
2022/04/26 14:08:02;;;;;;;4.90;3.20;;;;;;100476.84;;;;107150;1274;64852;-38
2022/04/26 14:10:30;;;;;;;5.30;3.00;;;;;;100476.44;;;;107126;1274;64758;-33
2022/04/26 14:12:59;;;;;;;5.20;3.30;;;;;;100478.32;;;;107227;1274;66134;-29
2022/04/26 14:23:44;;;;;;;4.80;3.00;;;;;;100473.16;;;;107186;1274;64772;-39
2022/04/26 14:26:12;;;;;;;4.90;3.10;;;;;;100474.70;;;;107198;1274;65794;-37
2022/04/26 14:28:39;;;;;;;5.20;2.70;;;;;;100473.42;;;;107184;1274;64829;-41
2022/04/26 14:31:06;;;;;;;4.40;3.10;;;;;;100474.27;;;;107237;1274;64777;-32
2022/04/26 14:33:34;;;;;;;4.50;2.60;;;;;;100478.31;;;;107162;1274;64763;-37
2022/04/26 14:36:01;;;;;;;4.90;3.00;;;;;;100478.97;;;;107301;1274;64876;-32
2022/04/26 14:38:29;;;;;;;4.50;3.00;;;;;;100478.26;;;;107199;1274;64926;-33
2022/04/26 14:40:56;;;;;;;4.30;2.80;;;;;;100476.52;;;;107180;1274;65089;-28
2022/04/26 14:43:23;;;;;;;4.70;3.00;;;;;;100477.33;;;;107217;1274;64752;-27
2022/04/26 14:45:53;;;;;;;4.00;2.90;;;;;;100477.35;;;;107163;1274;64894;-26
2022/04/26 14:48:23;;;;;;;5.30;2.90;;;;;;100480.98;;;;107186;1274;64745;-27
2022/04/26 14:50:50;;;;;;;4.40;2.90;;;;;;100481.70;;;;107250;1274;64886;-28
2022/04/26 14:53:18;;;;;;;4.00;2.60;;;;;;100481.91;;;;107215;1274;64740;-26
2022/04/26 14:55:46;;;;;;;4.60;2.90;;;;;;100480.38;;;;107200;1274;64848;-28
2022/04/26 14:58:14;;;;;;;4.50;2.70;;;;;;100480.65;;;;107190;1274;64750;-28
2022/04/26 15:00:41;;;;;;;4.90;3.00;;;;;;100481.79;;;;107144;1274;64786;-27
2022/04/26 15:03:09;;;;;;;4.10;2.60;;;;;;100484.47;;;;107166;1274;65154;-27
2022/04/26 15:05:36;;;;;;;4.90;2.90;;;;;;100490.85;;;;107201;1274;64753;-27
2022/04/26 15:10:50;;;;;;;4.30;2.90;;;;;;100489.89;;;;107168;1274;64725;-29
2022/04/26 15:18:50;;;;;;;3.80;2.60;;;;;;100492.64;;;;107156;1274;64875;-35
2022/04/26 15:21:18;;;;;;;5.10;3.10;;;;;;100493.08;;;;107217;1274;64850;-35
2022/04/26 15:23:45;;;;;;;4.90;2.90;;;;;;100500.19;;;;107156;1274;64757;-34
2022/04/26 15:26:12;;;;;;;4.80;2.80;;;;;;100500.08;;;;107200;1274;64645;-26
2022/04/26 15:28:41;;;;;;;5.20;2.60;;;;;;100502.21;;;;107213;1274;65965;-26
2022/04/26 15:31:10;;;;;;;4.50;2.70;;;;;;100501.68;;;;107230;1274;64738;-29
2022/04/26 15:33:38;;;;;;;4.60;2.50;;;;;;100503.36;;;;107153;1274;64728;-26
2022/04/26 15:36:05;;;;;;;5.00;2.90;;;;;;100503.15;;;;107129;1274;64929;-43
2022/04/26 15:38:33;;;;;;;4.90;3.10;;;;;;100504.17;;;;107202;1274;64777;-37
2022/04/26 15:41:05;;;;;;;4.30;2.60;;;;;;100504.72;;;;107125;1274;65928;-27
2022/04/26 15:43:34;;;;;;;4.20;2.60;;;;;;100503.85;;;;107201;1274;64827;-28
2022/04/26 15:46:05;;;;;;;4.20;2.50;;;;;;100503.23;;;;107212;1274;63623;-28
2022/04/26 15:48:37;;;;;;;4.10;2.70;;;;;;100502.16;;;;107185;1274;65094;-27
2022/04/26 15:51:06;;;;;;;4.40;2.70;;;;;;100500.64;;;;107224;1274;65459;-45
2022/04/26 15:53:34;;;;;;;4.70;2.60;;;;;;100500.63;;;;107209;1274;66407;-32
2022/04/26 15:56:02;;;;;;;4.60;2.80;;;;;;100499.95;;;;107187;1274;64737;-30
2022/04/26 15:58:29;;;;;;;4.70;2.80;;;;;;100501.22;;;;107122;1274;64834;-36
2022/04/26 16:00:57;;;;;;;4.10;2.50;;;;;;100501.77;;;;107148;1274;64926;-35
2022/04/26 16:03:24;;;;;;;4.30;2.80;;;;;;100502.21;;;;107252;1274;64847;-35
2022/04/26 16:05:51;;;;;;;4.40;2.70;;;;;;100504.33;;;;107191;1274;65133;-26
2022/04/26 16:08:19;;;;;;;4.80;3.00;;;;;;100503.97;;;;107142;1274;64887;-28
2022/04/26 16:21:50;;;;;;;4.50;2.60;;;;;;100507.05;;;;107076;1274;64842;-28
2022/04/26 16:24:17;;;;;;;4.10;2.70;;;;;;100507.10;;;;107211;1274;64738;-27
2022/04/26 16:26:45;;;;;;;4.40;2.70;;;;;;100507.98;;;;107172;1274;64907;-35
2022/04/26 16:29:12;;;;;;;6.90;2.60;;;;;;100508.46;;;;107226;1274;64962;-36
2022/04/26 16:31:39;;;;;;;4.10;2.40;;;;;;100506.56;;;;107113;1274;65228;-26
2022/04/26 16:34:07;;;;;;;4.60;2.90;;;;;;100505.17;;;;107169;1273;64763;-28
2022/04/26 16:36:36;;;;;;;4.40;2.70;;;;;;100506.13;;;;107212;1274;64776;-35
2022/04/26 16:39:05;;;;;;;4.50;2.80;;;;;;100511.43;;;;107172;1274;65080;-36
2022/04/26 16:41:32;;;;;;;4.10;2.70;;;;;;100511.61;;;;107238;1274;64845;-35
2022/04/26 16:43:59;;;;;;;4.20;2.30;;;;;;100511.61;;;;107199;1274;64769;-36
2022/04/26 16:46:30;;;;;;;4.10;2.50;;;;;;100512.05;;;;107170;1274;64771;-28
2022/04/26 16:48:57;;;;;;;5.60;3.10;;;;;;100515.12;;;;107197;1274;64763;-29
2022/04/26 16:51:26;;;;;;;5.20;2.70;;;;;;100514.58;;;;107093;1274;64761;-27
2022/04/26 16:53:53;;;;;;;4.40;2.60;;;;;;100519.45;;;;107229;1274;64998;-28
2022/04/26 16:56:21;;;;;;;4.40;2.70;;;;;;100521.29;;;;107116;1274;66135;-28
2022/04/26 16:58:48;;;;;;;4.20;2.70;;;;;;100520.77;;;;107161;1274;64833;-28
2022/04/26 17:01:15;;;;;;;4.70;2.70;;;;;;100521.71;;;;107210;1274;64884;-28
2022/04/26 17:03:43;;;;;;;5.50;2.90;;;;;;100522.58;;;;107152;1274;64757;-28
2022/04/26 17:06:11;;;;;;;4.60;2.60;;;;;;100524.23;;;;107137;1274;64936;-28
2022/04/26 17:08:38;;;;;;;4.60;2.70;;;;;;100526.06;;;;107186;1274;65247;-28
2022/04/26 17:13:51;;;;;;;5.20;3.10;;;;;;100530.44;;;;107136;1274;64836;-35
2022/04/26 17:16:18;;;;;;;5.00;3.00;;;;;;100530.34;;;;106956;1274;64728;-38
2022/04/26 17:18:45;;;;;;;5.00;2.80;;;;;;100532.08;;;;107135;1274;65003;-35
2022/04/26 17:21:12;;;;;;;4.50;2.80;;;;;;100535.02;;;;107134;1275;64663;-35
2022/04/26 17:23:40;;;;;;;4.10;2.40;;;;;;100535.95;;;;107106;1274;64899;-36
2022/04/26 17:26:07;;;;;;;4.10;2.50;;;;;;100536.73;;;;107142;1274;64760;-28
2022/04/26 17:28:34;;;;;;;4.70;2.40;;;;;;100539.90;;;;107134;1274;64719;-34